sensor_id;sensor_type;location;lat;lon;timestamp;temperature;humidity
67273;DHT22;54190;49.770;9.250;2023-04-03T00:00:41;2.00;99.90
67273;DHT22;54190;49.770;9.250;2023-04-03T00:03:07;2.00;99.90
67273;DHT22;54190;49.770;9.250;2023-04-03T00:05:33;2.00;99.90
67273;DHT22;54190;49.770;9.250;2023-04-03T00:07:58;2.00;99.90
67273;DHT22;54190;49.770;9.250;2023-04-03T00:10:24;2.00;99.90
67273;DHT22;54190;49.770;9.250;2023-04-03T00:12:50;2.00;99.90
67273;DHT22;54190;49.770;9.250;2023-04-03T00:15:16;2.00;99.90
67273;DHT22;54190;49.770;9.250;2023-04-03T00:17:42;2.00;99.90
67273;DHT22;54190;49.770;9.250;2023-04-03T00:20:08;1.90;99.90
67273;DHT22;54190;49.770;9.250;2023-04-03T00:22:34;1.60;99.90
67273;DHT22;54190;49.770;9.250;2023-04-03T00:24:59;1.50;99.90
67273;DHT22;54190;49.770;9.250;2023-04-03T00:27:25;1.40;99.90
67273;DHT22;54190;49.770;9.250;2023-04-03T00:29:51;1.40;99.90
67273;DHT22;54190;49.770;9.250;2023-04-03T00:32:16;1.50;99.90
67273;DHT22;54190;49.770;9.250;2023-04-03T00:34:42;1.40;99.90
67273;DHT22;54190;49.770;9.250;2023-04-03T00:37:08;1.20;99.90
67273;DHT22;54190;49.770;9.250;2023-04-03T00:39:33;1.00;99.90
67273;DHT22;54190;49.770;9.250;2023-04-03T00:41:59;0.90;99.90
67273;DHT22;54190;49.770;9.250;2023-04-03T00:46:53;1.00;99.90
67273;DHT22;54190;49.770;9.250;2023-04-03T00:49:19;1.10;99.90
67273;DHT22;54190;49.770;9.250;2023-04-03T00:51:45;1.20;99.90
67273;DHT22;54190;49.770;9.250;2023-04-03T00:54:11;1.20;99.90
67273;DHT22;54190;49.770;9.250;2023-04-03T00:56:38;1.30;99.90
67273;DHT22;54190;49.770;9.250;2023-04-03T00:59:08;1.40;99.90
67273;DHT22;54190;49.770;9.250;2023-04-03T01:01:36;1.30;99.90
67273;DHT22;54190;49.770;9.250;2023-04-03T01:04:03;1.10;99.90
67273;DHT22;54190;49.770;9.250;2023-04-03T01:06:32;0.90;99.90
67273;DHT22;54190;49.770;9.250;2023-04-03T01:09:04;0.70;99.90
67273;DHT22;54190;49.770;9.250;2023-04-03T01:11:30;0.70;99.90
67273;DHT22;54190;49.770;9.250;2023-04-03T01:13:56;0.60;99.90
67273;DHT22;54190;49.770;9.250;2023-04-03T01:16:23;0.50;99.90
67273;DHT22;54190;49.770;9.250;2023-04-03T01:18:49;0.40;99.90
67273;DHT22;54190;49.770;9.250;2023-04-03T01:21:46;0.40;99.90
67273;DHT22;54190;49.770;9.250;2023-04-03T01:24:31;0.40;99.90
67273;DHT22;54190;49.770;9.250;2023-04-03T01:26:58;0.40;99.90
67273;DHT22;54190;49.770;9.250;2023-04-03T01:29:24;0.30;99.90
67273;DHT22;54190;49.770;9.250;2023-04-03T01:31:53;0.30;99.90
67273;DHT22;54190;49.770;9.250;2023-04-03T01:34:19;0.30;99.90
67273;DHT22;54190;49.770;9.250;2023-04-03T01:36:45;0.30;99.90
67273;DHT22;54190;49.770;9.250;2023-04-03T01:39:11;0.30;99.90
67273;DHT22;54190;49.770;9.250;2023-04-03T01:41:37;0.30;99.90
67273;DHT22;54190;49.770;9.250;2023-04-03T01:44:11;0.30;99.90
67273;DHT22;54190;49.770;9.250;2023-04-03T01:46:37;0.30;99.90
67273;DHT22;54190;49.770;9.250;2023-04-03T01:49:03;0.30;99.90
67273;DHT22;54190;49.770;9.250;2023-04-03T01:51:30;0.50;99.90
67273;DHT22;54190;49.770;9.250;2023-04-03T01:53:56;0.60;99.90
67273;DHT22;54190;49.770;9.250;2023-04-03T01:56:22;0.50;99.90
67273;DHT22;54190;49.770;9.250;2023-04-03T01:58:48;0.50;99.90
67273;DHT22;54190;49.770;9.250;2023-04-03T02:01:13;0.60;99.90
67273;DHT22;54190;49.770;9.250;2023-04-03T02:03:40;0.60;99.90
67273;DHT22;54190;49.770;9.250;2023-04-03T02:06:06;0.60;99.90
67273;DHT22;54190;49.770;9.250;2023-04-03T02:08:32;0.50;99.90
67273;DHT22;54190;49.770;9.250;2023-04-03T02:10:58;0.40;99.90
67273;DHT22;54190;49.770;9.250;2023-04-03T02:13:24;0.30;99.90
67273;DHT22;54190;49.770;9.250;2023-04-03T02:15:49;0.40;99.90
67273;DHT22;54190;49.770;9.250;2023-04-03T02:18:16;0.30;99.90
67273;DHT22;54190;49.770;9.250;2023-04-03T02:20:42;0.20;99.90
67273;DHT22;54190;49.770;9.250;2023-04-03T02:23:08;0.20;99.90
67273;DHT22;54190;49.770;9.250;2023-04-03T02:25:33;0.30;99.90
67273;DHT22;54190;49.770;9.250;2023-04-03T02:27:59;0.30;99.90
67273;DHT22;54190;49.770;9.250;2023-04-03T02:30:25;0.30;99.90
67273;DHT22;54190;49.770;9.250;2023-04-03T02:32:51;0.40;99.90
67273;DHT22;54190;49.770;9.250;2023-04-03T02:35:17;0.40;99.90
67273;DHT22;54190;49.770;9.250;2023-04-03T02:37:43;0.40;99.90
67273;DHT22;54190;49.770;9.250;2023-04-03T02:40:09;0.50;99.90
67273;DHT22;54190;49.770;9.250;2023-04-03T02:42:37;0.60;99.90
67273;DHT22;54190;49.770;9.250;2023-04-03T02:45:03;0.70;99.90
67273;DHT22;54190;49.770;9.250;2023-04-03T02:47:29;0.70;99.90
67273;DHT22;54190;49.770;9.250;2023-04-03T02:49:54;0.80;99.90
67273;DHT22;54190;49.770;9.250;2023-04-03T02:52:20;0.70;99.90
67273;DHT22;54190;49.770;9.250;2023-04-03T02:54:47;0.60;99.90
67273;DHT22;54190;49.770;9.250;2023-04-03T02:57:13;0.30;99.90
67273;DHT22;54190;49.770;9.250;2023-04-03T02:59:39;0.10;99.90
67273;DHT22;54190;49.770;9.250;2023-04-03T03:02:07;0.00;99.90
67273;DHT22;54190;49.770;9.250;2023-04-03T03:04:33;-0.10;99.90
67273;DHT22;54190;49.770;9.250;2023-04-03T03:06:59;-0.10;99.90
67273;DHT22;54190;49.770;9.250;2023-04-03T03:09:25;-0.10;99.90
67273;DHT22;54190;49.770;9.250;2023-04-03T03:11:52;-0.10;99.90
67273;DHT22;54190;49.770;9.250;2023-04-03T03:14:17;-0.10;99.90
67273;DHT22;54190;49.770;9.250;2023-04-03T03:16:43;0.00;99.90
67273;DHT22;54190;49.770;9.250;2023-04-03T03:19:10;0.10;99.90
67273;DHT22;54190;49.770;9.250;2023-04-03T03:21:36;0.10;99.90
67273;DHT22;54190;49.770;9.250;2023-04-03T03:24:02;0.10;99.90
67273;DHT22;54190;49.770;9.250;2023-04-03T03:26:28;0.10;99.90
67273;DHT22;54190;49.770;9.250;2023-04-03T03:28:54;0.00;99.90
67273;DHT22;54190;49.770;9.250;2023-04-03T03:31:20;0.00;99.90
67273;DHT22;54190;49.770;9.250;2023-04-03T03:33:45;-0.10;99.90
67273;DHT22;54190;49.770;9.250;2023-04-03T03:36:12;-0.10;99.90
67273;DHT22;54190;49.770;9.250;2023-04-03T03:38:38;-0.20;99.90
67273;DHT22;54190;49.770;9.250;2023-04-03T03:41:04;-0.10;99.90
67273;DHT22;54190;49.770;9.250;2023-04-03T03:43:31;-0.10;99.90
67273;DHT22;54190;49.770;9.250;2023-04-03T03:45:57;-0.10;99.90
67273;DHT22;54190;49.770;9.250;2023-04-03T03:48:24;-0.10;99.90
67273;DHT22;54190;49.770;9.250;2023-04-03T03:50:50;-0.10;99.90
67273;DHT22;54190;49.770;9.250;2023-04-03T03:53:17;-0.10;99.90
67273;DHT22;54190;49.770;9.250;2023-04-03T03:55:43;0.00;99.90
67273;DHT22;54190;49.770;9.250;2023-04-03T03:58:09;0.10;99.90
67273;DHT22;54190;49.770;9.250;2023-04-03T04:00:35;0.10;99.90
67273;DHT22;54190;49.770;9.250;2023-04-03T04:03:01;0.10;99.90
67273;DHT22;54190;49.770;9.250;2023-04-03T04:05:29;0.20;99.90
67273;DHT22;54190;49.770;9.250;2023-04-03T04:07:54;0.20;99.90
67273;DHT22;54190;49.770;9.250;2023-04-03T04:10:21;0.10;99.90
67273;DHT22;54190;49.770;9.250;2023-04-03T04:12:47;0.10;99.90
67273;DHT22;54190;49.770;9.250;2023-04-03T04:15:14;0.00;99.90
67273;DHT22;54190;49.770;9.250;2023-04-03T04:17:40;0.00;99.90
67273;DHT22;54190;49.770;9.250;2023-04-03T04:20:10;0.10;99.90
67273;DHT22;54190;49.770;9.250;2023-04-03T04:22:36;0.10;99.90
67273;DHT22;54190;49.770;9.250;2023-04-03T04:25:03;0.10;99.90
67273;DHT22;54190;49.770;9.250;2023-04-03T04:27:29;0.00;99.90
67273;DHT22;54190;49.770;9.250;2023-04-03T04:29:55;0.00;99.90
67273;DHT22;54190;49.770;9.250;2023-04-03T04:32:21;0.10;99.90
67273;DHT22;54190;49.770;9.250;2023-04-03T04:34:48;0.10;99.90
67273;DHT22;54190;49.770;9.250;2023-04-03T04:37:13;0.30;99.90
67273;DHT22;54190;49.770;9.250;2023-04-03T04:39:39;0.30;99.90
67273;DHT22;54190;49.770;9.250;2023-04-03T04:42:05;0.40;99.90
67273;DHT22;54190;49.770;9.250;2023-04-03T04:44:32;0.50;99.90
67273;DHT22;54190;49.770;9.250;2023-04-03T04:46:58;0.50;99.90
67273;DHT22;54190;49.770;9.250;2023-04-03T04:49:24;0.50;99.90
67273;DHT22;54190;49.770;9.250;2023-04-03T04:51:50;0.50;99.90
67273;DHT22;54190;49.770;9.250;2023-04-03T04:54:17;0.50;99.90
67273;DHT22;54190;49.770;9.250;2023-04-03T04:56:45;0.60;99.90
67273;DHT22;54190;49.770;9.250;2023-04-03T04:59:10;0.80;99.90
67273;DHT22;54190;49.770;9.250;2023-04-03T05:01:36;0.70;99.90
67273;DHT22;54190;49.770;9.250;2023-04-03T05:04:07;0.70;99.90
67273;DHT22;54190;49.770;9.250;2023-04-03T05:06:33;0.70;99.90
67273;DHT22;54190;49.770;9.250;2023-04-03T05:09:02;0.70;99.90
67273;DHT22;54190;49.770;9.250;2023-04-03T05:11:29;0.70;99.90
67273;DHT22;54190;49.770;9.250;2023-04-03T05:13:55;0.70;99.90
67273;DHT22;54190;49.770;9.250;2023-04-03T05:16:22;0.60;99.90
67273;DHT22;54190;49.770;9.250;2023-04-03T05:18:48;0.80;99.90
67273;DHT22;54190;49.770;9.250;2023-04-03T05:21:18;0.80;99.90
67273;DHT22;54190;49.770;9.250;2023-04-03T05:23:45;0.70;99.90
67273;DHT22;54190;49.770;9.250;2023-04-03T05:26:11;0.70;99.90
67273;DHT22;54190;49.770;9.250;2023-04-03T05:28:37;0.70;99.90
67273;DHT22;54190;49.770;9.250;2023-04-03T05:31:03;0.90;99.90
67273;DHT22;54190;49.770;9.250;2023-04-03T05:33:33;1.10;99.90
67273;DHT22;54190;49.770;9.250;2023-04-03T05:36:04;1.20;99.90
67273;DHT22;54190;49.770;9.250;2023-04-03T05:38:31;1.30;99.90
67273;DHT22;54190;49.770;9.250;2023-04-03T05:40:57;1.40;99.90
67273;DHT22;54190;49.770;9.250;2023-04-03T05:43:23;1.60;99.90
67273;DHT22;54190;49.770;9.250;2023-04-03T05:45:50;1.70;99.90
67273;DHT22;54190;49.770;9.250;2023-04-03T05:48:15;1.70;99.90
67273;DHT22;54190;49.770;9.250;2023-04-03T05:50:41;1.70;99.90
67273;DHT22;54190;49.770;9.250;2023-04-03T05:53:19;1.70;99.90
67273;DHT22;54190;49.770;9.250;2023-04-03T05:55:46;1.70;99.90
67273;DHT22;54190;49.770;9.250;2023-04-03T05:58:12;1.70;99.90
67273;DHT22;54190;49.770;9.250;2023-04-03T06:00:39;1.70;99.90
67273;DHT22;54190;49.770;9.250;2023-04-03T06:03:06;1.80;99.90
67273;DHT22;54190;49.770;9.250;2023-04-03T06:05:31;1.80;99.90
67273;DHT22;54190;49.770;9.250;2023-04-03T06:07:57;1.80;99.90
67273;DHT22;54190;49.770;9.250;2023-04-03T06:10:23;1.80;99.90
67273;DHT22;54190;49.770;9.250;2023-04-03T06:12:50;1.90;99.90
67273;DHT22;54190;49.770;9.250;2023-04-03T06:15:16;1.80;99.90
67273;DHT22;54190;49.770;9.250;2023-04-03T06:17:42;1.80;99.90
67273;DHT22;54190;49.770;9.250;2023-04-03T06:20:10;1.80;99.90
67273;DHT22;54190;49.770;9.250;2023-04-03T06:22:36;1.90;99.90
67273;DHT22;54190;49.770;9.250;2023-04-03T06:25:02;1.90;99.90
67273;DHT22;54190;49.770;9.250;2023-04-03T06:27:28;2.00;99.90
67273;DHT22;54190;49.770;9.250;2023-04-03T06:29:54;2.00;99.90
67273;DHT22;54190;49.770;9.250;2023-04-03T06:32:20;2.10;99.90
67273;DHT22;54190;49.770;9.250;2023-04-03T06:34:45;2.20;99.90
67273;DHT22;54190;49.770;9.250;2023-04-03T06:37:16;2.20;99.90
67273;DHT22;54190;49.770;9.250;2023-04-03T06:39:42;2.20;99.90
67273;DHT22;54190;49.770;9.250;2023-04-03T06:42:08;2.20;99.90
67273;DHT22;54190;49.770;9.250;2023-04-03T06:44:39;2.30;99.90
67273;DHT22;54190;49.770;9.250;2023-04-03T06:47:05;2.30;99.90
67273;DHT22;54190;49.770;9.250;2023-04-03T06:49:31;2.40;99.90
67273;DHT22;54190;49.770;9.250;2023-04-03T06:51:57;2.40;99.90
67273;DHT22;54190;49.770;9.250;2023-04-03T06:54:23;2.40;99.90
67273;DHT22;54190;49.770;9.250;2023-04-03T06:56:48;2.50;99.90
67273;DHT22;54190;49.770;9.250;2023-04-03T06:59:15;2.60;99.90
67273;DHT22;54190;49.770;9.250;2023-04-03T07:01:40;2.60;99.90
67273;DHT22;54190;49.770;9.250;2023-04-03T07:04:07;2.70;99.90
67273;DHT22;54190;49.770;9.250;2023-04-03T07:06:33;2.70;99.90
67273;DHT22;54190;49.770;9.250;2023-04-03T07:08:59;2.70;99.90
67273;DHT22;54190;49.770;9.250;2023-04-03T07:11:25;2.70;99.90
67273;DHT22;54190;49.770;9.250;2023-04-03T07:13:52;2.80;99.90
67273;DHT22;54190;49.770;9.250;2023-04-03T07:16:18;2.80;99.90
67273;DHT22;54190;49.770;9.250;2023-04-03T07:18:44;2.90;99.90
67273;DHT22;54190;49.770;9.250;2023-04-03T07:21:10;2.90;99.90
67273;DHT22;54190;49.770;9.250;2023-04-03T07:23:36;2.90;99.90
67273;DHT22;54190;49.770;9.250;2023-04-03T07:26:02;2.90;99.90
67273;DHT22;54190;49.770;9.250;2023-04-03T07:28:28;2.90;99.90
67273;DHT22;54190;49.770;9.250;2023-04-03T07:31:05;3.00;99.90
67273;DHT22;54190;49.770;9.250;2023-04-03T07:33:37;3.10;99.90
67273;DHT22;54190;49.770;9.250;2023-04-03T07:36:04;3.20;99.90
67273;DHT22;54190;49.770;9.250;2023-04-03T07:38:30;3.30;99.90
67273;DHT22;54190;49.770;9.250;2023-04-03T07:40:56;3.30;99.90
67273;DHT22;54190;49.770;9.250;2023-04-03T07:43:22;3.50;99.90
67273;DHT22;54190;49.770;9.250;2023-04-03T07:45:50;3.50;99.90
67273;DHT22;54190;49.770;9.250;2023-04-03T07:48:18;3.60;99.90
67273;DHT22;54190;49.770;9.250;2023-04-03T07:50:44;3.70;99.90
67273;DHT22;54190;49.770;9.250;2023-04-03T07:53:10;3.80;99.90
67273;DHT22;54190;49.770;9.250;2023-04-03T07:55:36;4.00;99.90
67273;DHT22;54190;49.770;9.250;2023-04-03T07:58:17;4.10;99.90
67273;DHT22;54190;49.770;9.250;2023-04-03T08:00:43;4.20;99.30
67273;DHT22;54190;49.770;9.250;2023-04-03T08:03:10;4.30;99.90
67273;DHT22;54190;49.770;9.250;2023-04-03T08:05:37;4.40;99.90
67273;DHT22;54190;49.770;9.250;2023-04-03T08:08:03;4.50;99.90
67273;DHT22;54190;49.770;9.250;2023-04-03T08:10:32;4.60;99.90
67273;DHT22;54190;49.770;9.250;2023-04-03T08:12:59;4.80;99.60
67273;DHT22;54190;49.770;9.250;2023-04-03T08:15:25;4.90;99.20
67273;DHT22;54190;49.770;9.250;2023-04-03T08:17:50;4.90;97.80
67273;DHT22;54190;49.770;9.250;2023-04-03T08:20:17;5.00;98.10
67273;DHT22;54190;49.770;9.250;2023-04-03T08:22:42;5.10;97.10
67273;DHT22;54190;49.770;9.250;2023-04-03T08:25:09;5.30;97.40
67273;DHT22;54190;49.770;9.250;2023-04-03T08:27:34;5.40;96.20
67273;DHT22;54190;49.770;9.250;2023-04-03T08:30:00;5.40;96.20
67273;DHT22;54190;49.770;9.250;2023-04-03T08:32:26;5.60;96.20
67273;DHT22;54190;49.770;9.250;2023-04-03T08:34:53;5.80;96.20
67273;DHT22;54190;49.770;9.250;2023-04-03T08:37:19;5.80;94.40
67273;DHT22;54190;49.770;9.250;2023-04-03T08:39:45;5.80;94.80
67273;DHT22;54190;49.770;9.250;2023-04-03T08:45:15;5.80;91.00
67273;DHT22;54190;49.770;9.250;2023-04-03T08:47:46;5.80;94.20
67273;DHT22;54190;49.770;9.250;2023-04-03T08:50:15;5.90;94.40
67273;DHT22;54190;49.770;9.250;2023-04-03T08:52:47;6.10;95.00
67273;DHT22;54190;49.770;9.250;2023-04-03T08:58:07;6.10;93.90
67273;DHT22;54190;49.770;9.250;2023-04-03T09:00:51;6.00;92.80
67273;DHT22;54190;49.770;9.250;2023-04-03T09:03:21;6.00;94.40
67273;DHT22;54190;49.770;9.250;2023-04-03T09:05:54;6.20;93.00
67273;DHT22;54190;49.770;9.250;2023-04-03T09:08:30;6.20;93.90
67273;DHT22;54190;49.770;9.250;2023-04-03T09:16:42;6.60;93.10
67273;DHT22;54190;49.770;9.250;2023-04-03T09:19:18;6.80;95.80
67273;DHT22;54190;49.770;9.250;2023-04-03T09:21:47;7.10;94.60
67273;DHT22;54190;49.770;9.250;2023-04-03T09:24:15;7.20;94.20
67273;DHT22;54190;49.770;9.250;2023-04-03T09:26:45;7.30;94.30
67273;DHT22;54190;49.770;9.250;2023-04-03T09:29:18;7.50;94.90
67273;DHT22;54190;49.770;9.250;2023-04-03T09:31:46;7.70;94.00
67273;DHT22;54190;49.770;9.250;2023-04-03T09:34:28;7.80;93.00
67273;DHT22;54190;49.770;9.250;2023-04-03T09:36:57;7.80;91.10
67273;DHT22;54190;49.770;9.250;2023-04-03T09:39:26;7.40;90.90
67273;DHT22;54190;49.770;9.250;2023-04-03T09:42:03;7.00;91.20
67273;DHT22;54190;49.770;9.250;2023-04-03T09:44:32;7.00;92.90
67273;DHT22;54190;49.770;9.250;2023-04-03T09:46:59;7.00;92.10
67273;DHT22;54190;49.770;9.250;2023-04-03T09:49:26;7.20;93.90
67273;DHT22;54190;49.770;9.250;2023-04-03T09:51:51;7.30;91.40
67273;DHT22;54190;49.770;9.250;2023-04-03T09:54:36;7.20;91.50
67273;DHT22;54190;49.770;9.250;2023-04-03T09:57:10;7.10;93.00
67273;DHT22;54190;49.770;9.250;2023-04-03T09:59:46;7.50;94.00
67273;DHT22;54190;49.770;9.250;2023-04-03T10:02:24;7.80;92.60
67273;DHT22;54190;49.770;9.250;2023-04-03T10:04:51;7.90;91.10
67273;DHT22;54190;49.770;9.250;2023-04-03T10:07:35;7.40;91.10
67273;DHT22;54190;49.770;9.250;2023-04-03T10:10:22;7.40;91.40
67273;DHT22;54190;49.770;9.250;2023-04-03T10:13:09;7.50;92.40
67273;DHT22;54190;49.770;9.250;2023-04-03T10:15:44;7.60;90.10
67273;DHT22;54190;49.770;9.250;2023-04-03T10:21:08;7.80;87.90
67273;DHT22;54190;49.770;9.250;2023-04-03T10:23:51;7.80;86.60
67273;DHT22;54190;49.770;9.250;2023-04-03T10:26:32;8.00;91.00
67273;DHT22;54190;49.770;9.250;2023-04-03T10:31:40;8.40;85.30
67273;DHT22;54190;49.770;9.250;2023-04-03T10:34:48;8.40;84.70
67273;DHT22;54190;49.770;9.250;2023-04-03T10:37:15;8.30;89.20
67273;DHT22;54190;49.770;9.250;2023-04-03T10:40:14;8.40;85.20
67273;DHT22;54190;49.770;9.250;2023-04-03T10:43:28;7.80;86.50
67273;DHT22;54190;49.770;9.250;2023-04-03T10:46:06;6.90;88.50
67273;DHT22;54190;49.770;9.250;2023-04-03T10:51:42;6.80;90.50
67273;DHT22;54190;49.770;9.250;2023-04-03T10:54:31;6.60;90.50
67273;DHT22;54190;49.770;9.250;2023-04-03T10:57:08;6.90;91.00
67273;DHT22;54190;49.770;9.250;2023-04-03T10:59:44;6.90;91.10
67273;DHT22;54190;49.770;9.250;2023-04-03T11:02:24;7.20;91.30
67273;DHT22;54190;49.770;9.250;2023-04-03T11:04:55;7.60;91.90
67273;DHT22;54190;49.770;9.250;2023-04-03T11:07:26;7.70;87.00
67273;DHT22;54190;49.770;9.250;2023-04-03T11:09:58;7.80;92.20
67273;DHT22;54190;49.770;9.250;2023-04-03T11:12:38;7.80;86.20
67273;DHT22;54190;49.770;9.250;2023-04-03T11:15:15;7.40;85.30
67273;DHT22;54190;49.770;9.250;2023-04-03T11:20:32;6.80;86.60
67273;DHT22;54190;49.770;9.250;2023-04-03T11:23:04;6.90;87.70
67273;DHT22;54190;49.770;9.250;2023-04-03T11:25:33;7.10;88.50
67273;DHT22;54190;49.770;9.250;2023-04-03T11:28:12;7.20;87.70
67273;DHT22;54190;49.770;9.250;2023-04-03T11:33:40;7.70;84.00
67273;DHT22;54190;49.770;9.250;2023-04-03T11:36:17;7.80;84.00
67273;DHT22;54190;49.770;9.250;2023-04-03T11:38:45;7.10;77.00
67273;DHT22;54190;49.770;9.250;2023-04-03T11:41:13;6.50;78.50
67273;DHT22;54190;49.770;9.250;2023-04-03T11:44:00;6.20;80.80
67273;DHT22;54190;49.770;9.250;2023-04-03T11:46:55;6.20;79.40
67273;DHT22;54190;49.770;9.250;2023-04-03T11:49:50;6.10;78.30
67273;DHT22;54190;49.770;9.250;2023-04-03T12:05:52;7.50;77.10
67273;DHT22;54190;49.770;9.250;2023-04-03T12:08:27;7.50;72.40
67273;DHT22;54190;49.770;9.250;2023-04-03T12:26:50;8.30;72.90
67273;DHT22;54190;49.770;9.250;2023-04-03T12:29:25;8.20;70.30
67273;DHT22;54190;49.770;9.250;2023-04-03T12:34:55;7.20;73.60
67273;DHT22;54190;49.770;9.250;2023-04-03T12:38:11;6.90;73.10
67273;DHT22;54190;49.770;9.250;2023-04-03T12:41:04;6.60;71.60
67273;DHT22;54190;49.770;9.250;2023-04-03T12:46:22;6.90;75.30
67273;DHT22;54190;49.770;9.250;2023-04-03T12:48:50;7.10;75.00
67273;DHT22;54190;49.770;9.250;2023-04-03T12:54:02;7.70;72.50
67273;DHT22;54190;49.770;9.250;2023-04-03T12:56:31;7.90;71.70
67273;DHT22;54190;49.770;9.250;2023-04-03T12:59:20;8.30;75.20
67273;DHT22;54190;49.770;9.250;2023-04-03T13:01:54;8.90;71.10
67273;DHT22;54190;49.770;9.250;2023-04-03T13:04:21;8.50;63.80
67273;DHT22;54190;49.770;9.250;2023-04-03T13:06:47;8.10;64.20
67273;DHT22;54190;49.770;9.250;2023-04-03T13:09:27;8.30;71.80
67273;DHT22;54190;49.770;9.250;2023-04-03T13:12:11;8.60;61.60
67273;DHT22;54190;49.770;9.250;2023-04-03T13:14:38;8.60;66.10
67273;DHT22;54190;49.770;9.250;2023-04-03T13:17:16;8.00;59.30
67273;DHT22;54190;49.770;9.250;2023-04-03T13:19:42;7.80;60.40
67273;DHT22;54190;49.770;9.250;2023-04-03T13:24:41;8.00;64.30
67273;DHT22;54190;49.770;9.250;2023-04-03T13:27:11;8.30;65.90
67273;DHT22;54190;49.770;9.250;2023-04-03T13:29:37;8.70;59.60
67273;DHT22;54190;49.770;9.250;2023-04-03T13:32:04;8.50;64.90
67273;DHT22;54190;49.770;9.250;2023-04-03T13:34:41;8.60;64.20
67273;DHT22;54190;49.770;9.250;2023-04-03T13:37:32;8.50;66.50
67273;DHT22;54190;49.770;9.250;2023-04-03T13:42:36;7.90;61.20
67273;DHT22;54190;49.770;9.250;2023-04-03T13:45:21;7.70;62.40
67273;DHT22;54190;49.770;9.250;2023-04-03T13:47:51;7.90;63.90
67273;DHT22;54190;49.770;9.250;2023-04-03T13:50:23;8.20;66.20
67273;DHT22;54190;49.770;9.250;2023-04-03T13:52:59;8.30;56.80
67273;DHT22;54190;49.770;9.250;2023-04-03T13:55:32;8.40;59.70
67273;DHT22;54190;49.770;9.250;2023-04-03T13:58:03;8.40;60.00
67273;DHT22;54190;49.770;9.250;2023-04-03T14:05:56;9.40;65.20
67273;DHT22;54190;49.770;9.250;2023-04-03T14:08:23;9.50;55.60
67273;DHT22;54190;49.770;9.250;2023-04-03T14:10:49;9.00;54.40
67273;DHT22;54190;49.770;9.250;2023-04-03T14:13:18;8.50;56.30
67273;DHT22;54190;49.770;9.250;2023-04-03T14:15:45;8.20;57.20
67273;DHT22;54190;49.770;9.250;2023-04-03T14:18:15;8.40;59.60
67273;DHT22;54190;49.770;9.250;2023-04-03T14:20:41;8.80;59.00
67273;DHT22;54190;49.770;9.250;2023-04-03T14:23:07;9.00;59.10
67273;DHT22;54190;49.770;9.250;2023-04-03T14:25:33;9.20;55.70
67273;DHT22;54190;49.770;9.250;2023-04-03T14:28:00;9.00;57.80
67273;DHT22;54190;49.770;9.250;2023-04-03T14:30:32;9.00;57.60
67273;DHT22;54190;49.770;9.250;2023-04-03T14:32:59;9.00;63.50
67273;DHT22;54190;49.770;9.250;2023-04-03T14:35:25;9.00;56.60
67273;DHT22;54190;49.770;9.250;2023-04-03T14:37:52;9.30;63.90
67273;DHT22;54190;49.770;9.250;2023-04-03T14:40:21;9.70;60.80
67273;DHT22;54190;49.770;9.250;2023-04-03T14:42:47;9.70;57.10
67273;DHT22;54190;49.770;9.250;2023-04-03T14:45:15;9.40;55.30
67273;DHT22;54190;49.770;9.250;2023-04-03T14:47:45;9.40;54.80
67273;DHT22;54190;49.770;9.250;2023-04-03T14:50:21;9.10;51.80
67273;DHT22;54190;49.770;9.250;2023-04-03T14:52:49;8.80;54.60
67273;DHT22;54190;49.770;9.250;2023-04-03T14:55:17;8.90;59.20
67273;DHT22;54190;49.770;9.250;2023-04-03T14:57:43;9.20;56.80
67273;DHT22;54190;49.770;9.250;2023-04-03T15:00:15;9.50;56.10
67273;DHT22;54190;49.770;9.250;2023-04-03T15:02:41;9.40;51.60
67273;DHT22;54190;49.770;9.250;2023-04-03T15:05:09;9.40;53.60
67273;DHT22;54190;49.770;9.250;2023-04-03T15:07:44;9.50;54.50
67273;DHT22;54190;49.770;9.250;2023-04-03T15:12:41;9.20;52.40
67273;DHT22;54190;49.770;9.250;2023-04-03T15:15:08;8.80;53.30
67273;DHT22;54190;49.770;9.250;2023-04-03T15:17:34;8.90;55.20
67273;DHT22;54190;49.770;9.250;2023-04-03T15:20:01;8.70;51.30
67273;DHT22;54190;49.770;9.250;2023-04-03T15:22:27;8.40;55.30
67273;DHT22;54190;49.770;9.250;2023-04-03T15:24:53;8.60;55.40
67273;DHT22;54190;49.770;9.250;2023-04-03T15:27:19;8.80;52.90
67273;DHT22;54190;49.770;9.250;2023-04-03T15:29:45;8.90;55.00
67273;DHT22;54190;49.770;9.250;2023-04-03T15:32:11;8.80;53.00
67273;DHT22;54190;49.770;9.250;2023-04-03T15:34:37;8.80;54.50
67273;DHT22;54190;49.770;9.250;2023-04-03T15:37:03;8.80;52.90
67273;DHT22;54190;49.770;9.250;2023-04-03T15:39:29;8.80;53.30
67273;DHT22;54190;49.770;9.250;2023-04-03T15:41:54;8.80;55.40
67273;DHT22;54190;49.770;9.250;2023-04-03T15:44:21;8.80;54.50
67273;DHT22;54190;49.770;9.250;2023-04-03T15:46:47;8.80;54.10
67273;DHT22;54190;49.770;9.250;2023-04-03T15:49:18;8.60;55.00
67273;DHT22;54190;49.770;9.250;2023-04-03T15:51:44;8.40;53.20
67273;DHT22;54190;49.770;9.250;2023-04-03T15:54:11;8.50;54.30
67273;DHT22;54190;49.770;9.250;2023-04-03T15:56:36;8.20;53.00
67273;DHT22;54190;49.770;9.250;2023-04-03T15:59:02;8.10;54.00
67273;DHT22;54190;49.770;9.250;2023-04-03T16:01:28;7.60;53.40
67273;DHT22;54190;49.770;9.250;2023-04-03T16:03:54;7.30;54.50
67273;DHT22;54190;49.770;9.250;2023-04-03T16:06:20;7.20;56.60
67273;DHT22;54190;49.770;9.250;2023-04-03T16:08:47;7.10;55.10
67273;DHT22;54190;49.770;9.250;2023-04-03T16:11:13;7.00;57.10
67273;DHT22;54190;49.770;9.250;2023-04-03T16:13:39;7.10;58.40
67273;DHT22;54190;49.770;9.250;2023-04-03T16:16:06;7.30;57.20
67273;DHT22;54190;49.770;9.250;2023-04-03T16:18:34;7.50;57.90
67273;DHT22;54190;49.770;9.250;2023-04-03T16:21:00;7.30;56.10
67273;DHT22;54190;49.770;9.250;2023-04-03T16:23:26;7.20;57.30
67273;DHT22;54190;49.770;9.250;2023-04-03T16:25:51;7.20;57.10
67273;DHT22;54190;49.770;9.250;2023-04-03T16:28:17;7.20;57.90
67273;DHT22;54190;49.770;9.250;2023-04-03T16:30:44;7.20;57.10
67273;DHT22;54190;49.770;9.250;2023-04-03T16:33:11;7.40;59.50
67273;DHT22;54190;49.770;9.250;2023-04-03T16:35:37;7.60;57.70
67273;DHT22;54190;49.770;9.250;2023-04-03T16:38:03;7.60;58.10
67273;DHT22;54190;49.770;9.250;2023-04-03T16:40:29;7.60;59.30
67273;DHT22;54190;49.770;9.250;2023-04-03T16:42:55;7.50;57.90
67273;DHT22;54190;49.770;9.250;2023-04-03T16:45:21;7.20;57.10
67273;DHT22;54190;49.770;9.250;2023-04-03T16:47:47;7.10;58.30
67273;DHT22;54190;49.770;9.250;2023-04-03T16:50:12;7.10;58.00
67273;DHT22;54190;49.770;9.250;2023-04-03T16:52:38;7.00;57.50
67273;DHT22;54190;49.770;9.250;2023-04-03T16:55:04;6.90;58.40
67273;DHT22;54190;49.770;9.250;2023-04-03T16:57:30;6.80;60.30
67273;DHT22;54190;49.770;9.250;2023-04-03T16:59:56;6.70;59.30
67273;DHT22;54190;49.770;9.250;2023-04-03T17:02:22;6.60;59.20
67273;DHT22;54190;49.770;9.250;2023-04-03T17:04:52;6.50;58.80
67273;DHT22;54190;49.770;9.250;2023-04-03T17:07:23;6.50;58.50
67273;DHT22;54190;49.770;9.250;2023-04-03T17:09:49;6.20;59.90
67273;DHT22;54190;49.770;9.250;2023-04-03T17:12:15;6.00;59.80
67273;DHT22;54190;49.770;9.250;2023-04-03T17:14:41;6.00;61.70